sensor_id;sensor_type;location;lat;lon;timestamp;pressure;altitude;pressure_sealevel;temperature;humidity
68594;BME280;55563;52.416;13.548;2023-04-27T00:00:11;101361.53;;;6.17;100.00
68594;BME280;55563;52.416;13.548;2023-04-27T00:02:27;101362.53;;;6.16;100.00
68594;BME280;55563;52.416;13.548;2023-04-27T00:04:28;101358.91;;;6.17;100.00
68594;BME280;55563;52.416;13.548;2023-04-27T00:06:29;101360.94;;;6.15;100.00
68594;BME280;55563;52.416;13.548;2023-04-27T00:08:30;101355.50;;;6.17;100.00
68594;BME280;55563;52.416;13.548;2023-04-27T00:10:31;101355.50;;;6.17;100.00
68594;BME280;55563;52.416;13.548;2023-04-27T00:12:32;101349.69;;;6.14;100.00
68594;BME280;55563;52.416;13.548;2023-04-27T00:14:33;101346.91;;;6.09;100.00
68594;BME280;55563;52.416;13.548;2023-04-27T00:16:34;101350.47;;;6.15;100.00
68594;BME280;55563;52.416;13.548;2023-04-27T00:18:35;101352.91;;;6.17;100.00
68594;BME280;55563;52.416;13.548;2023-04-27T00:20:36;101354.50;;;6.18;100.00
68594;BME280;55563;52.416;13.548;2023-04-27T00:22:38;101349.28;;;6.18;100.00
68594;BME280;55563;52.416;13.548;2023-04-27T00:24:39;101348.69;;;6.16;100.00
68594;BME280;55563;52.416;13.548;2023-04-27T00:26:41;101348.88;;;6.14;100.00
68594;BME280;55563;52.416;13.548;2023-04-27T00:28:41;101355.72;;;6.15;100.00
68594;BME280;55563;52.416;13.548;2023-04-27T00:30:42;101349.69;;;6.14;100.00
68594;BME280;55563;52.416;13.548;2023-04-27T00:32:44;101346.50;;;6.12;100.00
68594;BME280;55563;52.416;13.548;2023-04-27T00:34:45;101350.13;;;6.11;100.00
68594;BME280;55563;52.416;13.548;2023-04-27T00:36:46;101353.31;;;6.13;100.00
68594;BME280;55563;52.416;13.548;2023-04-27T00:38:47;101344.06;;;6.18;100.00
68594;BME280;55563;52.416;13.548;2023-04-27T00:40:48;101351.88;;;6.18;100.00
68594;BME280;55563;52.416;13.548;2023-04-27T00:42:48;101351.66;;;6.19;100.00
68594;BME280;55563;52.416;13.548;2023-04-27T00:44:49;101351.88;;;6.18;100.00
68594;BME280;55563;52.416;13.548;2023-04-27T00:46:51;101350.09;;;6.18;100.00
68594;BME280;55563;52.416;13.548;2023-04-27T00:48:53;101349.03;;;6.19;100.00
68594;BME280;55563;52.416;13.548;2023-04-27T00:50:54;101360.94;;;6.15;100.00
68594;BME280;55563;52.416;13.548;2023-04-27T00:52:55;101357.91;;;6.18;100.00
68594;BME280;55563;52.416;13.548;2023-04-27T00:54:56;101357.31;;;6.16;100.00
68594;BME280;55563;52.416;13.548;2023-04-27T00:56:57;101362.72;;;6.14;100.00
68594;BME280;55563;52.416;13.548;2023-04-27T00:58:58;101367.56;;;6.18;100.00
68594;BME280;55563;52.416;13.548;2023-04-27T01:01:01;101363.94;;;6.19;100.00
68594;BME280;55563;52.416;13.548;2023-04-27T01:03:06;101358.91;;;6.17;100.00
68594;BME280;55563;52.416;13.548;2023-04-27T01:05:07;101357.31;;;6.16;100.00
68594;BME280;55563;52.416;13.548;2023-04-27T01:07:08;101362.53;;;6.16;100.00
68594;BME280;55563;52.416;13.548;2023-04-27T01:09:09;101359.31;;;6.14;100.00
68594;BME280;55563;52.416;13.548;2023-04-27T01:11:11;101364.78;;;6.12;100.00
68594;BME280;55563;52.416;13.548;2023-04-27T01:13:13;101372.00;;;6.10;100.00
68594;BME280;55563;52.416;13.548;2023-04-27T01:15:13;101364.34;;;6.16;100.00
68594;BME280;55563;52.416;13.548;2023-04-27T01:17:14;101377.38;;;6.16;100.00
68594;BME280;55563;52.416;13.548;2023-04-27T01:19:15;101370.56;;;6.14;100.00
68594;BME280;55563;52.416;13.548;2023-04-27T01:21:16;101374.78;;;6.16;100.00
68594;BME280;55563;52.416;13.548;2023-04-27T01:23:17;101365.34;;;6.14;100.00
68594;BME280;55563;52.416;13.548;2023-04-27T01:25:18;101375.59;;;6.16;100.00
68594;BME280;55563;52.416;13.548;2023-04-27T01:27:19;101376.59;;;6.15;100.00
68594;BME280;55563;52.416;13.548;2023-04-27T01:29:20;101375.22;;;6.12;100.00
68594;BME280;55563;52.416;13.548;2023-04-27T01:31:21;101374.22;;;6.13;100.00
68594;BME280;55563;52.416;13.548;2023-04-27T01:33:22;101384.41;;;6.15;100.00
68594;BME280;55563;52.416;13.548;2023-04-27T01:35:23;101378.19;;;6.16;100.00
68594;BME280;55563;52.416;13.548;2023-04-27T01:37:25;101382.59;;;6.16;100.00
68594;BME280;55563;52.416;13.548;2023-04-27T01:39:26;101387.25;;;6.13;100.00
68594;BME280;55563;52.416;13.548;2023-04-27T01:41:26;101383.41;;;6.16;100.00
68594;BME280;55563;52.416;13.548;2023-04-27T01:43:28;101386.66;;;6.11;100.00
68594;BME280;55563;52.416;13.548;2023-04-27T01:45:29;101391.88;;;6.11;100.00
68594;BME280;55563;52.416;13.548;2023-04-27T01:47:29;101385.84;;;6.11;100.00
68594;BME280;55563;52.416;13.548;2023-04-27T01:49:30;101387.47;;;6.05;100.00
68594;BME280;55563;52.416;13.548;2023-04-27T01:51:31;101390.50;;;6.09;100.00
68594;BME280;55563;52.416;13.548;2023-04-27T01:53:32;101392.94;;;6.04;100.00
68594;BME280;55563;52.416;13.548;2023-04-27T01:55:33;101394.50;;;6.05;100.00
68594;BME280;55563;52.416;13.548;2023-04-27T01:57:35;101397.91;;;6.05;100.00
68594;BME280;55563;52.416;13.548;2023-04-27T01:59:36;101398.72;;;6.06;100.00
68594;BME280;55563;52.416;13.548;2023-04-27T02:01:37;101404.38;;;6.03;100.00
68594;BME280;55563;52.416;13.548;2023-04-27T02:03:38;101399.97;;;6.03;100.00
68594;BME280;55563;52.416;13.548;2023-04-27T02:05:39;101402.34;;;6.05;100.00
68594;BME280;55563;52.416;13.548;2023-04-27T02:07:41;101399.97;;;6.03;100.00
68594;BME280;55563;52.416;13.548;2023-04-27T02:09:41;101404.75;;;6.06;100.00
68594;BME280;55563;52.416;13.548;2023-04-27T02:11:44;101405.97;;;6.04;100.00
68594;BME280;55563;52.416;13.548;2023-04-27T02:13:45;101401.97;;;6.01;100.00
68594;BME280;55563;52.416;13.548;2023-04-27T02:15:46;101409.59;;;6.03;100.00
68594;BME280;55563;52.416;13.548;2023-04-27T02:17:49;101409.00;;;6.01;100.00
68594;BME280;55563;52.416;13.548;2023-04-27T02:19:49;101413.81;;;6.04;100.00
68594;BME280;55563;52.416;13.548;2023-04-27T02:21:50;101412.38;;;6.08;100.00
68594;BME280;55563;52.416;13.548;2023-04-27T02:23:51;101410.78;;;6.00;100.00
68594;BME280;55563;52.416;13.548;2023-04-27T02:25:52;101409.00;;;6.01;100.00
68594;BME280;55563;52.416;13.548;2023-04-27T02:27:53;101417.63;;;6.01;100.00
68594;BME280;55563;52.416;13.548;2023-04-27T02:29:53;101412.03;;;5.98;100.00
68594;BME280;55563;52.416;13.548;2023-04-27T02:31:54;101422.66;;;5.96;100.00
68594;BME280;55563;52.416;13.548;2023-04-27T02:33:55;101418.44;;;5.95;100.00
68594;BME280;55563;52.416;13.548;2023-04-27T02:35:58;101428.88;;;5.95;100.00
68594;BME280;55563;52.416;13.548;2023-04-27T02:38:01;101424.69;;;5.94;100.00
68594;BME280;55563;52.416;13.548;2023-04-27T02:40:02;101430.13;;;5.93;100.00
68594;BME280;55563;52.416;13.548;2023-04-27T02:42:06;101419.25;;;5.96;100.00
68594;BME280;55563;52.416;13.548;2023-04-27T02:44:07;101423.47;;;5.97;100.00
68594;BME280;55563;52.416;13.548;2023-04-27T02:46:07;101430.91;;;5.93;100.00
68594;BME280;55563;52.416;13.548;2023-04-27T02:48:08;101422.09;;;5.94;100.00
68594;BME280;55563;52.416;13.548;2023-04-27T02:50:09;101424.69;;;5.94;100.00
68594;BME280;55563;52.416;13.548;2023-04-27T02:52:10;101431.31;;;5.90;100.00
68594;BME280;55563;52.416;13.548;2023-04-27T02:54:11;101417.50;;;5.90;100.00
68594;BME280;55563;52.416;13.548;2023-04-27T02:56:12;101424.06;;;5.86;100.00
68594;BME280;55563;52.416;13.548;2023-04-27T02:58:13;101427.13;;;5.89;100.00
68594;BME280;55563;52.416;13.548;2023-04-27T03:00:14;101430.94;;;5.87;100.00
68594;BME280;55563;52.416;13.548;2023-04-27T03:02:15;101429.53;;;5.84;100.00
68594;BME280;55563;52.416;13.548;2023-04-27T03:04:16;101429.13;;;5.87;100.00
68594;BME280;55563;52.416;13.548;2023-04-27T03:06:17;101435.75;;;5.83;100.00
68594;BME280;55563;52.416;13.548;2023-04-27T03:08:18;101429.53;;;5.84;100.00
68594;BME280;55563;52.416;13.548;2023-04-27T03:10:18;101430.53;;;5.83;100.00
68594;BME280;55563;52.416;13.548;2023-04-27T03:12:19;101433.75;;;5.79;100.00
68594;BME280;55563;52.416;13.548;2023-04-27T03:14:20;101436.56;;;5.77;100.00
68594;BME280;55563;52.416;13.548;2023-04-27T03:16:22;101436.56;;;5.77;100.00
68594;BME280;55563;52.416;13.548;2023-04-27T03:18:23;101448.41;;;5.80;100.00
68594;BME280;55563;52.416;13.548;2023-04-27T03:20:24;101446.59;;;5.80;100.00
68594;BME280;55563;52.416;13.548;2023-04-27T03:22:27;101437.97;;;5.80;100.00
68594;BME280;55563;52.416;13.548;2023-04-27T03:24:27;101448.19;;;5.81;100.00
68594;BME280;55563;52.416;13.548;2023-04-27T03:26:28;101442.97;;;5.81;100.00
68594;BME280;55563;52.416;13.548;2023-04-27T03:28:31;101440.59;;;5.73;100.00
68594;BME280;55563;52.416;13.548;2023-04-27T03:30:32;101446.44;;;5.68;100.00
68594;BME280;55563;52.416;13.548;2023-04-27T03:32:33;101448.22;;;5.68;100.00
68594;BME280;55563;52.416;13.548;2023-04-27T03:34:35;101452.03;;;5.72;100.00
68594;BME280;55563;52.416;13.548;2023-04-27T03:36:36;101453.44;;;5.75;100.00
68594;BME280;55563;52.416;13.548;2023-04-27T03:38:37;101454.44;;;5.67;100.00
68594;BME280;55563;52.416;13.548;2023-04-27T03:40:38;101454.66;;;5.65;100.00
68594;BME280;55563;52.416;13.548;2023-04-27T03:42:39;101450.47;;;5.64;100.00
68594;BME280;55563;52.416;13.548;2023-04-27T03:44:39;101464.31;;;5.65;100.00
68594;BME280;55563;52.416;13.548;2023-04-27T03:46:40;101458.03;;;5.72;100.00
68594;BME280;55563;52.416;13.548;2023-04-27T03:48:41;101462.50;;;5.65;100.00
68594;BME280;55563;52.416;13.548;2023-04-27T03:50:45;101466.69;;;5.66;100.00
68594;BME280;55563;52.416;13.548;2023-04-27T03:52:46;101456.25;;;5.66;100.00
68594;BME280;55563;52.416;13.548;2023-04-27T03:54:48;101458.66;;;5.68;100.00
68594;BME280;55563;52.416;13.548;2023-04-27T03:56:48;101459.03;;;5.71;100.00
68594;BME280;55563;52.416;13.548;2023-04-27T03:58:49;101462.88;;;5.69;100.00
68594;BME280;55563;52.416;13.548;2023-04-27T04:00:52;101467.72;;;5.65;100.00
68594;BME280;55563;52.416;13.548;2023-04-27T04:02:54;101479.94;;;5.65;100.00
68594;BME280;55563;52.416;13.548;2023-04-27T04:04:55;101476.91;;;5.68;100.00
68594;BME280;55563;52.416;13.548;2023-04-27T04:06:56;101483.31;;;5.72;100.00
68594;BME280;55563;52.416;13.548;2023-04-27T04:08:58;101477.91;;;5.67;100.00
68594;BME280;55563;52.416;13.548;2023-04-27T04:10:59;101489.97;;;5.68;100.00
68594;BME280;55563;52.416;13.548;2023-04-27T04:13:00;101483.31;;;5.72;100.00
68594;BME280;55563;52.416;13.548;2023-04-27T04:15:02;101493.56;;;5.74;100.00
68594;BME280;55563;52.416;13.548;2023-04-27T04:17:04;101497.16;;;5.72;100.00
68594;BME280;55563;52.416;13.548;2023-04-27T04:19:04;101495.75;;;5.77;100.00
68594;BME280;55563;52.416;13.548;2023-04-27T04:21:05;101496.56;;;5.77;100.00
68594;BME280;55563;52.416;13.548;2023-04-27T04:23:06;101501.38;;;5.74;100.00
68594;BME280;55563;52.416;13.548;2023-04-27T04:25:07;101505.38;;;5.76;100.00
68594;BME280;55563;52.416;13.548;2023-04-27T04:27:08;101511.63;;;5.75;100.00
68594;BME280;55563;52.416;13.548;2023-04-27T04:29:09;101501.16;;;5.82;100.00
68594;BME280;55563;52.416;13.548;2023-04-27T04:31:09;101503.97;;;5.87;100.00
68594;BME280;55563;52.416;13.548;2023-04-27T04:33:10;101502.94;;;5.81;100.00
68594;BME280;55563;52.416;13.548;2023-04-27T04:35:11;101501.38;;;5.80;100.00
68594;BME280;55563;52.416;13.548;2023-04-27T04:37:12;101507.78;;;5.78;100.00
68594;BME280;55563;52.416;13.548;2023-04-27T04:39:13;101505.59;;;5.75;100.00
68594;BME280;55563;52.416;13.548;2023-04-27T04:41:14;101507.41;;;5.74;100.00
68594;BME280;55563;52.416;13.548;2023-04-27T04:43:15;101501.78;;;5.77;100.00
68594;BME280;55563;52.416;13.548;2023-04-27T04:45:16;101508.78;;;5.77;100.00
68594;BME280;55563;52.416;13.548;2023-04-27T04:47:17;101512.19;;;5.77;100.00
68594;BME280;55563;52.416;13.548;2023-04-27T04:49:20;101508.59;;;5.78;100.00
68594;BME280;55563;52.416;13.548;2023-04-27T04:51:20;101504.56;;;5.82;100.00
68594;BME280;55563;52.416;13.548;2023-04-27T04:53:21;101514.22;;;5.88;100.00
68594;BME280;55563;52.416;13.548;2023-04-27T04:55:24;101510.16;;;5.86;100.00
68594;BME280;55563;52.416;13.548;2023-04-27T04:57:25;101513.00;;;5.91;100.00
68594;BME280;55563;52.416;13.548;2023-04-27T04:59:26;101517.22;;;5.92;100.00
68594;BME280;55563;52.416;13.548;2023-04-27T05:01:27;101514.59;;;5.98;100.00
68594;BME280;55563;52.416;13.548;2023-04-27T05:03:28;101522.41;;;5.98;100.00
68594;BME280;55563;52.416;13.548;2023-04-27T05:05:28;101524.03;;;5.93;100.00
68594;BME280;55563;52.416;13.548;2023-04-27T05:07:29;101523.59;;;6.02;100.00
68594;BME280;55563;52.416;13.548;2023-04-27T05:09:30;101528.81;;;6.09;100.00
68594;BME280;55563;52.416;13.548;2023-04-27T05:11:31;101525.16;;;6.17;100.00
68594;BME280;55563;52.416;13.548;2023-04-27T05:13:41;101527.81;;;6.03;100.00
68594;BME280;55563;52.416;13.548;2023-04-27T05:15:42;101525.22;;;6.03;100.00
68594;BME280;55563;52.416;13.548;2023-04-27T05:17:43;101528.97;;;6.14;100.00
68594;BME280;55563;52.416;13.548;2023-04-27T05:19:44;101529.38;;;6.18;100.00
68594;BME280;55563;52.416;13.548;2023-04-27T05:21:45;101529.38;;;6.18;100.00
68594;BME280;55563;52.416;13.548;2023-04-27T05:23:46;101516.88;;;6.33;100.00
68594;BME280;55563;52.416;13.548;2023-04-27T05:25:47;101529.28;;;6.37;100.00
68594;BME280;55563;52.416;13.548;2023-04-27T05:27:47;101528.59;;;6.48;100.00
68594;BME280;55563;52.416;13.548;2023-04-27T05:29:48;101524.38;;;6.54;100.00
68594;BME280;55563;52.416;13.548;2023-04-27T05:31:49;101513.88;;;6.61;100.00
68594;BME280;55563;52.416;13.548;2023-04-27T05:33:50;101521.16;;;6.83;100.00
68594;BME280;55563;52.416;13.548;2023-04-27T05:35:50;101524.28;;;6.98;100.00
68594;BME280;55563;52.416;13.548;2023-04-27T05:37:52;101525.28;;;6.97;100.00
68594;BME280;55563;52.416;13.548;2023-04-27T05:39:52;101523.47;;;6.98;100.00
68594;BME280;55563;52.416;13.548;2023-04-27T05:41:53;101525.41;;;7.09;100.00
68594;BME280;55563;52.416;13.548;2023-04-27T05:43:54;101516.25;;;7.00;100.00
68594;BME280;55563;52.416;13.548;2023-04-27T05:45:55;101519.31;;;7.15;100.00
68594;BME280;55563;52.416;13.548;2023-04-27T05:47:55;101521.22;;;7.51;100.00
68594;BME280;55563;52.416;13.548;2023-04-27T05:49:56;101529.28;;;7.50;100.00
68594;BME280;55563;52.416;13.548;2023-04-27T05:51:57;101524.06;;;7.68;100.00
68594;BME280;55563;52.416;13.548;2023-04-27T05:53:58;101530.41;;;7.78;100.00
68594;BME280;55563;52.416;13.548;2023-04-27T05:56:01;101525.53;;;7.82;100.00
68594;BME280;55563;52.416;13.548;2023-04-27T05:58:03;101525.97;;;7.97;100.00
68594;BME280;55563;52.416;13.548;2023-04-27T06:00:05;101532.56;;;8.18;100.00
68594;BME280;55563;52.416;13.548;2023-04-27T06:02:27;101529.09;;;8.24;100.00
68594;BME280;55563;52.416;13.548;2023-04-27T06:04:28;101532.88;;;8.10;100.00
68594;BME280;55563;52.416;13.548;2023-04-27T06:06:30;101527.28;;;8.54;100.00
68594;BME280;55563;52.416;13.548;2023-04-27T06:08:32;101532.03;;;8.46;100.00
68594;BME280;55563;52.416;13.548;2023-04-27T06:10:37;101532.84;;;8.28;100.00
68594;BME280;55563;52.416;13.548;2023-04-27T06:12:38;101534.19;;;8.67;100.00
68594;BME280;55563;52.416;13.548;2023-04-27T06:14:39;101539.72;;;8.59;100.00
68594;BME280;55563;52.416;13.548;2023-04-27T06:16:40;101542.03;;;8.19;100.00
68594;BME280;55563;52.416;13.548;2023-04-27T06:18:40;101545.38;;;8.08;100.00
68594;BME280;55563;52.416;13.548;2023-04-27T06:20:41;101549.72;;;8.50;100.00
68594;BME280;55563;52.416;13.548;2023-04-27T06:22:42;101548.22;;;8.72;100.00
68594;BME280;55563;52.416;13.548;2023-04-27T06:24:43;101545.47;;;8.79;100.00
68594;BME280;55563;52.416;13.548;2023-04-27T06:26:44;101549.28;;;8.95;100.00
68594;BME280;55563;52.416;13.548;2023-04-27T06:28:44;101555.00;;;9.03;100.00
68594;BME280;55563;52.416;13.548;2023-04-27T06:30:46;101551.25;;;8.99;100.00
68594;BME280;55563;52.416;13.548;2023-04-27T06:32:47;101553.81;;;8.88;100.00
68594;BME280;55563;52.416;13.548;2023-04-27T06:34:48;101552.13;;;8.93;100.00
68594;BME280;55563;52.416;13.548;2023-04-27T06:36:49;101556.88;;;9.73;100.00
68594;BME280;55563;52.416;13.548;2023-04-27T06:38:50;101559.25;;;9.97;100.00
68594;BME280;55563;52.416;13.548;2023-04-27T06:40:55;101560.50;;;9.83;100.00
68594;BME280;55563;52.416;13.548;2023-04-27T06:42:56;101555.75;;;11.55;94.80
68594;BME280;55563;52.416;13.548;2023-04-27T06:44:56;101558.00;;;12.29;83.11
68594;BME280;55563;52.416;13.548;2023-04-27T06:46:58;101566.75;;;12.83;80.93
68594;BME280;55563;52.416;13.548;2023-04-27T06:48:58;101557.53;;;16.68;60.89
68594;BME280;55563;52.416;13.548;2023-04-27T06:50:59;101560.22;;;18.44;53.60
68594;BME280;55563;52.416;13.548;2023-04-27T06:53:00;101557.84;;;17.53;53.09
68594;BME280;55563;52.416;13.548;2023-04-27T06:55:01;101554.28;;;16.27;51.59
68594;BME280;55563;52.416;13.548;2023-04-27T06:57:02;101560.81;;;15.90;51.47
68594;BME280;55563;52.416;13.548;2023-04-27T06:59:02;101562.00;;;14.83;59.96
68594;BME280;55563;52.416;13.548;2023-04-27T07:01:03;101567.38;;;17.01;52.70
68594;BME280;55563;52.416;13.548;2023-04-27T07:03:04;101569.94;;;17.11;50.61
68594;BME280;55563;52.416;13.548;2023-04-27T07:05:05;101569.09;;;16.38;52.64
68594;BME280;55563;52.416;13.548;2023-04-27T07:07:06;101572.84;;;14.92;60.42
68594;BME280;55563;52.416;13.548;2023-04-27T07:09:07;101561.66;;;15.81;55.73
68594;BME280;55563;52.416;13.548;2023-04-27T07:11:07;101571.78;;;14.88;56.79
68594;BME280;55563;52.416;13.548;2023-04-27T07:13:08;101563.03;;;13.89;60.88
68594;BME280;55563;52.416;13.548;2023-04-27T07:15:09;101571.13;;;13.31;67.66
68594;BME280;55563;52.416;13.548;2023-04-27T07:17:10;101568.91;;;13.18;70.14
68594;BME280;55563;52.416;13.548;2023-04-27T07:19:11;101565.66;;;13.84;69.16
68594;BME280;55563;52.416;13.548;2023-04-27T07:21:12;101574.63;;;12.07;71.72
68594;BME280;55563;52.416;13.548;2023-04-27T07:23:12;101567.63;;;11.74;74.22
68594;BME280;55563;52.416;13.548;2023-04-27T07:25:13;101572.19;;;10.67;81.66
68594;BME280;55563;52.416;13.548;2023-04-27T07:27:15;101572.56;;;11.04;81.64
68594;BME280;55563;52.416;13.548;2023-04-27T07:29:15;101570.25;;;10.91;84.63
68594;BME280;55563;52.416;13.548;2023-04-27T07:31:17;101566.00;;;11.57;81.69
68594;BME280;55563;52.416;13.548;2023-04-27T07:33:17;101576.38;;;11.13;78.89
68594;BME280;55563;52.416;13.548;2023-04-27T07:35:18;101566.94;;;11.67;78.45
68594;BME280;55563;52.416;13.548;2023-04-27T07:37:19;101578.66;;;12.15;73.90
68594;BME280;55563;52.416;13.548;2023-04-27T07:39:20;101574.47;;;10.92;76.44
68594;BME280;55563;52.416;13.548;2023-04-27T07:41:20;101577.03;;;11.04;76.51
68594;BME280;55563;52.416;13.548;2023-04-27T07:43:23;101579.75;;;10.12;80.53
68594;BME280;55563;52.416;13.548;2023-04-27T07:45:26;101573.06;;;9.70;83.40
68594;BME280;55563;52.416;13.548;2023-04-27T07:47:31;101583.19;;;11.98;76.14
68594;BME280;55563;52.416;13.548;2023-04-27T07:49:32;101582.25;;;11.70;75.79
68594;BME280;55563;52.416;13.548;2023-04-27T07:51:34;101581.63;;;12.67;75.64
68594;BME280;55563;52.416;13.548;2023-04-27T07:53:36;101585.81;;;11.59;69.58
68594;BME280;55563;52.416;13.548;2023-04-27T07:55:36;101580.91;;;12.28;70.43
68594;BME280;55563;52.416;13.548;2023-04-27T07:57:38;101583.16;;;12.63;72.54
68594;BME280;55563;52.416;13.548;2023-04-27T07:59:38;101581.63;;;12.94;68.61
68594;BME280;55563;52.416;13.548;2023-04-27T08:01:39;101583.13;;;12.14;73.76
68594;BME280;55563;52.416;13.548;2023-04-27T08:03:40;101585.44;;;12.28;73.64
68594;BME280;55563;52.416;13.548;2023-04-27T08:05:41;101588.97;;;12.16;73.03
68594;BME280;55563;52.416;13.548;2023-04-27T08:07:42;101587.09;;;11.23;81.03
68594;BME280;55563;52.416;13.548;2023-04-27T08:09:42;101593.88;;;11.03;76.86
68594;BME280;55563;52.416;13.548;2023-04-27T08:11:43;101593.34;;;10.61;77.16
68594;BME280;55563;52.416;13.548;2023-04-27T08:13:44;101588.81;;;10.04;82.58
68594;BME280;55563;52.416;13.548;2023-04-27T08:15:45;101589.09;;;10.43;83.04
68594;BME280;55563;52.416;13.548;2023-04-27T08:17:45;101590.56;;;10.79;81.01
68594;BME280;55563;52.416;13.548;2023-04-27T08:19:46;101580.38;;;10.99;82.24
68594;BME280;55563;52.416;13.548;2023-04-27T08:21:47;101587.81;;;11.02;78.29
68594;BME280;55563;52.416;13.548;2023-04-27T08:23:48;101588.06;;;10.72;79.21
68594;BME280;55563;52.416;13.548;2023-04-27T08:25:49;101598.09;;;10.75;81.33
68594;BME280;55563;52.416;13.548;2023-04-27T08:27:49;101595.25;;;10.48;83.10
68594;BME280;55563;52.416;13.548;2023-04-27T08:29:50;101593.91;;;10.34;83.25
68594;BME280;55563;52.416;13.548;2023-04-27T08:31:51;101596.75;;;10.73;81.93
68594;BME280;55563;52.416;13.548;2023-04-27T08:33:52;101601.81;;;10.91;86.70
68594;BME280;55563;52.416;13.548;2023-04-27T08:35:53;101599.31;;;10.56;83.00
68594;BME280;55563;52.416;13.548;2023-04-27T08:37:54;101595.44;;;9.60;82.88
68594;BME280;55563;52.416;13.548;2023-04-27T08:39:55;101595.44;;;9.95;83.83
68594;BME280;55563;52.416;13.548;2023-04-27T08:41:56;101595.00;;;9.87;83.28
68594;BME280;55563;52.416;13.548;2023-04-27T08:43:57;101595.09;;;9.92;84.96
68594;BME280;55563;52.416;13.548;2023-04-27T08:45:58;101601.47;;;10.19;83.36
68594;BME280;55563;52.416;13.548;2023-04-27T08:47:59;101590.50;;;10.62;81.46
68594;BME280;55563;52.416;13.548;2023-04-27T08:50:01;101586.44;;;11.33;81.78
68594;BME280;55563;52.416;13.548;2023-04-27T08:52:04;101591.22;;;10.46;75.29
68594;BME280;55563;52.416;13.548;2023-04-27T08:54:10;101587.97;;;10.39;75.53
68594;BME280;55563;52.416;13.548;2023-04-27T08:56:11;101606.50;;;10.21;76.75
68594;BME280;55563;52.416;13.548;2023-04-27T08:58:11;101596.94;;;10.55;79.87
68594;BME280;55563;52.416;13.548;2023-04-27T09:00:12;101594.91;;;10.73;79.08
68594;BME280;55563;52.416;13.548;2023-04-27T09:02:18;101592.22;;;10.05;77.86
68594;BME280;55563;52.416;13.548;2023-04-27T09:04:19;101594.31;;;10.55;78.29
68594;BME280;55563;52.416;13.548;2023-04-27T09:06:32;101594.25;;;10.38;78.09
68594;BME280;55563;52.416;13.548;2023-04-27T09:10:56;101601.72;;;10.06;81.42
68594;BME280;55563;52.416;13.548;2023-04-27T09:14:24;101603.75;;;10.04;84.80
68594;BME280;55563;52.416;13.548;2023-04-27T09:16:11;101602.31;;;9.73;86.25
68594;BME280;55563;52.416;13.548;2023-04-27T09:18:17;101605.38;;;9.70;93.36
68594;BME280;55563;52.416;13.548;2023-04-27T09:20:18;101609.38;;;9.61;100.00
68594;BME280;55563;52.416;13.548;2023-04-27T09:22:19;101608.09;;;9.52;100.00
68594;BME280;55563;52.416;13.548;2023-04-27T09:24:20;101601.81;;;10.11;100.00
68594;BME280;55563;52.416;13.548;2023-04-27T09:26:23;101600.13;;;10.17;99.34
68594;BME280;55563;52.416;13.548;2023-04-27T09:28:26;101600.88;;;10.29;100.00
68594;BME280;55563;52.416;13.548;2023-04-27T09:30:28;101587.97;;;10.27;99.88
68594;BME280;55563;52.416;13.548;2023-04-27T09:32:29;101592.66;;;10.14;98.18
68594;BME280;55563;52.416;13.548;2023-04-27T09:34:40;101591.56;;;10.21;95.53
68594;BME280;55563;52.416;13.548;2023-04-27T09:36:41;101587.06;;;10.33;93.81
68594;BME280;55563;52.416;13.548;2023-04-27T09:38:50;101591.09;;;10.53;92.01
68594;BME280;55563;52.416;13.548;2023-04-27T09:40:52;101591.06;;;10.64;88.42
68594;BME280;55563;52.416;13.548;2023-04-27T09:43:00;101585.94;;;10.58;87.46
68594;BME280;55563;52.416;13.548;2023-04-27T09:45:01;101591.00;;;10.47;87.80
68594;BME280;55563;52.416;13.548;2023-04-27T09:47:09;101584.41;;;10.73;87.87
68594;BME280;55563;52.416;13.548;2023-04-27T09:49:11;101590.13;;;10.70;86.69
68594;BME280;55563;52.416;13.548;2023-04-27T09:51:51;101579.50;;;11.10;84.58
68594;BME280;55563;52.416;13.548;2023-04-27T09:53:59;101577.81;;;11.04;81.80
68594;BME280;55563;52.416;13.548;2023-04-27T09:59:13;101568.06;;;11.71;79.93
68594;BME280;55563;52.416;13.548;2023-04-27T10:01:44;101562.94;;;11.98;76.04
68594;BME280;55563;52.416;13.548;2023-04-27T10:08:41;101572.81;;;11.19;77.54
68594;BME280;55563;52.416;13.548;2023-04-27T10:10:46;101565.31;;;10.66;77.78
68594;BME280;55563;52.416;13.548;2023-04-27T10:13:19;101571.72;;;10.70;78.29
68594;BME280;55563;52.416;13.548;2023-04-27T10:15:25;101572.38;;;10.77;82.24
68594;BME280;55563;52.416;13.548;2023-04-27T10:17:32;101578.88;;;10.75;79.81
68594;BME280;55563;52.416;13.548;2023-04-27T10:19:33;101567.88;;;10.61;77.92
68594;BME280;55563;52.416;13.548;2023-04-27T10:21:33;101568.03;;;10.55;76.35
68594;BME280;55563;52.416;13.548;2023-04-27T10:23:44;101574.34;;;10.70;80.13
68594;BME280;55563;52.416;13.548;2023-04-27T10:25:46;101568.91;;;10.88;80.21
68594;BME280;55563;52.416;13.548;2023-04-27T10:28:02;101572.28;;;10.72;82.46
68594;BME280;55563;52.416;13.548;2023-04-27T10:30:09;101578.53;;;10.55;82.64
68594;BME280;55563;52.416;13.548;2023-04-27T10:32:12;101573.69;;;10.63;83.15
68594;BME280;55563;52.416;13.548;2023-04-27T10:34:15;101574.13;;;10.72;83.89
68594;BME280;55563;52.416;13.548;2023-04-27T10:36:16;101586.13;;;10.39;83.62
68594;BME280;55563;52.416;13.548;2023-04-27T10:38:19;101582.84;;;10.09;83.15
68594;BME280;55563;52.416;13.548;2023-04-27T10:40:32;101581.38;;;10.25;85.16